createdAt,value
2023-03-22T00:00:30.151Z,83.50
2023-03-22T00:03:33.011Z,83.50
2023-03-22T00:06:37.143Z,83.70
2023-03-22T00:09:39.944Z,83.80
2023-03-22T00:12:42.783Z,84.70
2023-03-22T00:15:48.619Z,84.80
2023-03-22T00:18:51.900Z,84.80
2023-03-22T00:21:56.286Z,85.50
2023-03-22T00:24:59.238Z,85.60
2023-03-22T00:28:02.057Z,86.30
2023-03-22T00:31:06.174Z,86.20
2023-03-22T00:34:09.268Z,87.10
2023-03-22T00:37:13.522Z,87.50
2023-03-22T00:40:18.288Z,87.70
2023-03-22T00:43:21.314Z,87.60
2023-03-22T00:46:24.200Z,86.80
2023-03-22T00:49:27.285Z,86.90
2023-03-22T00:52:31.428Z,87.50
2023-03-22T00:55:34.348Z,87.80
2023-03-22T00:58:37.223Z,87.70
2023-03-22T01:01:40.455Z,87.90
2023-03-22T01:04:46.251Z,88.10
2023-03-22T01:07:51.671Z,87.90
2023-03-22T01:10:54.484Z,87.40
2023-03-22T01:13:57.438Z,87.20
2023-03-22T01:17:00.377Z,87.00
2023-03-22T01:20:06.713Z,87.30
2023-03-22T01:23:10.871Z,87.40
2023-03-22T01:26:13.680Z,87.80
2023-03-22T01:29:16.768Z,87.60
2023-03-22T01:32:19.566Z,87.90
2023-03-22T01:35:22.604Z,87.20
2023-03-22T01:38:26.865Z,87.00
2023-03-22T01:41:29.845Z,87.10
2023-03-22T01:44:33.783Z,87.40
2023-03-22T01:47:36.773Z,86.80
2023-03-22T01:50:42.583Z,86.90
2023-03-22T01:53:51.151Z,87.30
2023-03-22T01:56:54.082Z,87.80
2023-03-22T01:59:57.495Z,87.10
2023-03-22T02:03:00.822Z,87.30
2023-03-22T02:06:04.089Z,86.80
2023-03-22T02:09:09.683Z,86.90
2023-03-22T02:12:21.498Z,86.90
2023-03-22T02:15:26.533Z,87.00
2023-03-22T02:18:44.386Z,86.50
2023-03-22T02:22:25.890Z,86.80
2023-03-22T02:26:04.149Z,86.60
2023-03-22T02:29:13.865Z,86.70
2023-03-22T02:32:33.521Z,86.30
2023-03-22T02:36:16.528Z,86.10
2023-03-22T02:39:32.735Z,87.40
2023-03-22T02:42:44.941Z,87.50
2023-03-22T02:45:52.103Z,87.20
2023-03-22T02:49:03.172Z,87.40
2023-03-22T02:52:17.558Z,87.80
2023-03-22T02:55:25.593Z,87.60
2023-03-22T02:58:31.934Z,87.50
2023-03-22T03:01:39.053Z,87.60
2023-03-22T03:04:46.172Z,88.20
2023-03-22T03:07:53.431Z,88.40
2023-03-22T03:10:57.648Z,88.20
2023-03-22T03:14:00.593Z,88.30
2023-03-22T03:17:14.019Z,88.50
2023-03-22T03:20:29.929Z,88.50
2023-03-22T03:23:43.317Z,88.60
2023-03-22T03:26:57.091Z,88.50
2023-03-22T03:30:04.123Z,88.60
2023-03-22T03:33:10.546Z,88.90
2023-03-22T03:36:17.654Z,89.20
2023-03-22T03:39:22.081Z,89.50
2023-03-22T03:42:29.086Z,89.60
2023-03-22T03:45:32.657Z,89.70
2023-03-22T03:48:39.840Z,89.90
2023-03-22T03:51:51.048Z,89.80
2023-03-22T03:54:55.092Z,90.20
2023-03-22T03:57:59.244Z,89.70
2023-03-22T04:01:03.949Z,90.00
2023-03-22T04:04:07.145Z,90.40
2023-03-22T04:07:10.367Z,90.60
2023-03-22T04:10:13.266Z,90.50
2023-03-22T04:13:17.540Z,90.70
2023-03-22T04:16:20.458Z,90.40
2023-03-22T04:19:23.606Z,90.60
2023-03-22T04:22:26.846Z,90.70
2023-03-22T04:25:30.417Z,90.60
2023-03-22T04:28:34.736Z,90.50
2023-03-22T04:31:39.008Z,90.80
2023-03-22T04:34:41.774Z,90.80
2023-03-22T04:37:45.608Z,90.90
2023-03-22T04:40:48.395Z,91.10
2023-03-22T04:43:52.865Z,91.40
2023-03-22T04:46:55.805Z,91.40
2023-03-22T04:49:58.571Z,91.40
2023-03-22T04:53:01.374Z,91.50
2023-03-22T04:56:05.533Z,91.50
2023-03-22T04:59:10.823Z,91.60
2023-03-22T05:02:13.660Z,91.60
2023-03-22T05:05:16.634Z,91.60
2023-03-22T05:08:19.952Z,91.70
2023-03-22T05:11:24.251Z,91.80
2023-03-22T05:14:28.555Z,91.70
2023-03-22T05:17:31.384Z,91.80
2023-03-22T05:20:34.519Z,91.70
2023-03-22T05:23:37.389Z,91.70
2023-03-22T05:26:42.440Z,91.80
2023-03-22T05:29:46.757Z,91.80
2023-03-22T05:32:50.298Z,91.80
2023-03-22T05:35:53.131Z,91.80
2023-03-22T05:38:56.111Z,91.80
2023-03-22T05:41:58.924Z,91.90
2023-03-22T05:45:03.026Z,91.80
2023-03-22T05:48:05.947Z,91.90
2023-03-22T05:51:13.067Z,92.00
2023-03-22T05:54:15.953Z,92.10
2023-03-22T05:57:19.002Z,92.20
2023-03-22T06:00:24.195Z,92.30
2023-03-22T06:03:27.064Z,92.40
2023-03-22T06:06:29.994Z,92.40
2023-03-22T06:09:32.919Z,92.40
2023-03-22T06:12:36.289Z,92.60
2023-03-22T06:15:40.574Z,92.70
2023-03-22T06:18:43.349Z,92.70
2023-03-22T06:21:46.133Z,93.00
2023-03-22T06:24:49.173Z,93.00
2023-03-22T06:27:51.952Z,93.10
2023-03-22T06:30:56.274Z,93.40
2023-03-22T06:33:59.116Z,93.60
2023-03-22T06:37:01.976Z,93.40
2023-03-22T06:40:05.536Z,93.20
2023-03-22T06:43:08.301Z,93.20
2023-03-22T06:46:12.481Z,92.90
2023-03-22T06:49:16.706Z,92.80
2023-03-22T06:52:19.825Z,92.70
2023-03-22T06:55:22.745Z,92.40
2023-03-22T06:58:25.687Z,92.70
2023-03-22T07:01:29.800Z,92.30
2023-03-22T07:04:33.077Z,91.80
2023-03-22T07:07:35.912Z,91.70
2023-03-22T07:10:39.117Z,91.50
2023-03-22T07:13:42.060Z,91.50
2023-03-22T07:16:46.176Z,91.20
2023-03-22T07:19:48.969Z,91.20
2023-03-22T07:22:52.066Z,91.00
2023-03-22T07:25:55.913Z,90.90
2023-03-22T07:28:59.145Z,90.70
2023-03-22T07:32:03.356Z,90.70
2023-03-22T07:35:06.898Z,90.40
2023-03-22T07:38:09.701Z,90.00
2023-03-22T07:41:12.496Z,89.10
2023-03-22T07:44:18.266Z,88.40
2023-03-22T07:47:39.473Z,87.60
2023-03-22T07:50:42.905Z,86.60
2023-03-22T07:53:45.696Z,86.00
2023-03-22T07:56:49.041Z,85.90
2023-03-22T07:59:51.866Z,85.80
2023-03-22T08:02:56.374Z,85.60
2023-03-22T08:06:03.754Z,85.00
2023-03-22T08:09:08.320Z,86.10
2023-03-22T08:12:11.242Z,85.10
2023-03-22T08:15:14.100Z,84.30
2023-03-22T08:18:18.430Z,83.70
2023-03-22T08:21:23.503Z,85.00
2023-03-22T08:24:26.391Z,84.20
2023-03-22T08:27:29.171Z,82.40
2023-03-22T08:30:32.060Z,82.00
2023-03-22T08:33:36.758Z,81.80
2023-03-22T08:36:39.737Z,81.00
2023-03-22T08:39:44.011Z,80.50
2023-03-22T08:42:46.780Z,81.30
2023-03-22T08:45:49.607Z,81.40
2023-03-22T08:48:53.777Z,80.00
2023-03-22T08:51:57.603Z,79.50
2023-03-22T08:55:01.198Z,78.60
2023-03-22T08:58:04.863Z,75.20
2023-03-22T09:01:07.971Z,75.40
2023-03-22T09:04:12.121Z,73.90
2023-03-22T09:07:15.033Z,73.00
2023-03-22T09:10:17.968Z,72.50
2023-03-22T09:13:21.669Z,72.70
2023-03-22T09:16:24.669Z,72.50
2023-03-22T09:19:29.084Z,72.20
2023-03-22T09:22:31.968Z,71.30
2023-03-22T09:25:35.018Z,70.30
2023-03-22T09:28:38.292Z,72.30
2023-03-22T09:31:41.318Z,70.40
2023-03-22T09:34:45.600Z,69.80
2023-03-22T09:37:53.039Z,69.80
2023-03-22T09:41:02.164Z,68.40
2023-03-22T09:44:07.752Z,68.80
2023-03-22T09:47:17.039Z,69.60
2023-03-22T09:50:24.223Z,68.20
2023-03-22T09:53:29.359Z,67.90
2023-03-22T09:56:33.285Z,66.80
2023-03-22T09:59:45.442Z,66.70
2023-03-22T10:02:55.870Z,65.70
2023-03-22T10:06:05.347Z,66.20
2023-03-22T10:09:14.456Z,65.70
2023-03-22T10:12:26.671Z,65.40
2023-03-22T10:15:34.201Z,65.10
2023-03-22T10:18:39.755Z,66.00
2023-03-22T10:21:45.284Z,65.60
2023-03-22T10:24:51.937Z,65.00
2023-03-22T10:27:54.867Z,63.20
2023-03-22T10:30:59.128Z,62.90
2023-03-22T10:34:06.600Z,61.50
2023-03-22T10:37:16.097Z,60.70
2023-03-22T10:40:21.252Z,60.40
2023-03-22T10:43:28.855Z,62.30
2023-03-22T10:46:37.373Z,60.90
2023-03-22T10:49:45.100Z,61.50
2023-03-22T10:52:52.497Z,59.90
2023-03-22T10:55:55.599Z,61.20
2023-03-22T10:58:58.963Z,59.70
2023-03-22T11:02:02.162Z,57.40
2023-03-22T11:05:07.085Z,57.40
2023-03-22T11:08:15.563Z,57.00
2023-03-22T11:11:24.325Z,56.60
2023-03-22T11:14:31.568Z,56.30
2023-03-22T11:17:38.255Z,56.80
2023-03-22T11:20:43.162Z,56.10
2023-03-22T11:23:56.344Z,55.30
2023-03-22T11:27:07.406Z,56.10
2023-03-22T11:30:21.097Z,54.60
2023-03-22T11:33:25.821Z,56.70
2023-03-22T11:36:29.594Z,57.10
2023-03-22T11:39:34.162Z,56.60
2023-03-22T11:42:37.194Z,55.20
2023-03-22T11:45:43.945Z,55.20
2023-03-22T11:48:48.406Z,54.60
2023-03-22T11:51:53.029Z,54.40
2023-03-22T11:54:59.573Z,54.00
2023-03-22T11:58:03.921Z,53.90
2023-03-22T12:01:08.690Z,53.50
2023-03-22T12:04:17.285Z,53.90
2023-03-22T12:07:24.502Z,53.90
2023-03-22T12:10:32.035Z,52.30
2023-03-22T12:13:44.252Z,51.40
2023-03-22T12:16:51.220Z,51.00
2023-03-22T12:20:00.402Z,51.60
2023-03-22T12:23:03.804Z,51.80
2023-03-22T12:26:13.906Z,50.30
2023-03-22T12:29:19.170Z,51.40
2023-03-22T12:32:26.303Z,49.50
2023-03-22T12:35:32.294Z,49.60
2023-03-22T12:38:41.261Z,49.10
2023-03-22T12:41:49.607Z,49.20
2023-03-22T12:45:04.545Z,48.70
2023-03-22T12:48:16.300Z,47.00
2023-03-22T12:51:19.229Z,46.60
2023-03-22T12:54:26.125Z,45.90
2023-03-22T12:57:30.560Z,45.50
2023-03-22T13:00:39.406Z,45.20
2023-03-22T13:03:47.859Z,44.00
2023-03-22T13:06:58.718Z,44.30
2023-03-22T13:10:22.440Z,43.50
2023-03-22T13:13:56.653Z,43.20
2023-03-22T13:17:01.470Z,44.90
2023-03-22T13:20:27.025Z,44.90
2023-03-22T13:23:29.827Z,43.40
2023-03-22T13:26:37.789Z,43.40
2023-03-22T13:29:43.048Z,44.40
2023-03-22T13:32:52.028Z,45.30
2023-03-22T13:35:58.813Z,43.40
2023-03-22T13:39:09.140Z,44.00
2023-03-22T13:42:21.019Z,41.50
2023-03-22T13:45:33.828Z,40.20
2023-03-22T13:48:54.703Z,40.40
2023-03-22T13:52:02.111Z,41.40
2023-03-22T13:55:15.201Z,41.40
2023-03-22T13:58:37.312Z,40.00
2023-03-22T14:01:47.548Z,40.70
2023-03-22T14:04:54.103Z,43.20
2023-03-22T14:07:59.357Z,43.60
2023-03-22T14:11:08.705Z,42.60
2023-03-22T14:14:14.321Z,42.30
2023-03-22T14:17:30.796Z,42.80
2023-03-22T14:20:37.466Z,42.30
